createdAt,value
2019-04-16T00:01:50.116Z,10.63
2019-04-16T00:04:44.238Z,10.56
2019-04-16T00:07:31.364Z,10.49
2019-04-16T00:10:07.726Z,10.47
2019-04-16T00:13:05.120Z,10.47
2019-04-16T00:15:34.519Z,10.39
2019-04-16T00:18:04.004Z,10.35
2019-04-16T00:20:36.921Z,10.36
2019-04-16T00:23:07.444Z,10.34
2019-04-16T00:25:36.876Z,10.17
2019-04-16T00:28:05.953Z,10.20
2019-04-16T00:30:36.331Z,10.10
2019-04-16T00:33:07.734Z,10.08
2019-04-16T00:35:34.749Z,10.05
2019-04-16T00:38:04.109Z,10.04
2019-04-16T00:40:33.226Z,10.04
2019-04-16T00:43:02.495Z,10.06
2019-04-16T00:45:31.780Z,9.98
2019-04-16T00:48:01.233Z,9.99
2019-04-16T00:50:30.586Z,10.01
2019-04-16T00:53:00.018Z,9.94
2019-04-16T00:55:29.222Z,9.92
2019-04-16T00:57:58.510Z,9.93
2019-04-16T01:00:30.620Z,9.87
2019-04-16T01:02:57.194Z,9.84
2019-04-16T01:05:26.708Z,9.84
2019-04-16T01:07:55.881Z,9.76
2019-04-16T01:10:25.507Z,9.70
2019-04-16T01:12:54.711Z,9.68
2019-04-16T01:15:23.829Z,9.59
2019-04-16T01:17:52.915Z,9.56
2019-04-16T01:20:22.124Z,9.48
2019-04-16T01:22:51.331Z,9.48
2019-04-16T01:25:23.274Z,9.39
2019-04-16T01:27:53.959Z,9.41
2019-04-16T01:30:47.733Z,9.40
2019-04-16T01:33:22.589Z,9.36
2019-04-16T01:36:03.894Z,9.30
2019-04-16T01:38:37.710Z,9.16
2019-04-16T01:41:09.966Z,9.22
2019-04-16T01:43:39.018Z,9.43
2019-04-16T01:46:08.379Z,9.29
2019-04-16T01:48:39.114Z,9.33
2019-04-16T01:51:06.787Z,9.27
2019-04-16T01:53:35.824Z,9.26
2019-04-16T01:56:05.015Z,9.20
2019-04-16T01:58:34.672Z,9.19
2019-04-16T02:01:03.384Z,9.14
2019-04-16T02:03:32.493Z,9.13
2019-04-16T02:06:01.726Z,9.09
2019-04-16T02:08:31.705Z,9.29
2019-04-16T02:11:00.064Z,9.08
2019-04-16T02:13:29.448Z,9.04
2019-04-16T02:15:58.581Z,9.07
2019-04-16T02:18:29.815Z,8.98
2019-04-16T02:20:57.029Z,8.98
2019-04-16T02:23:26.240Z,8.99
2019-04-16T02:25:55.368Z,8.93
2019-04-16T02:28:27.938Z,8.91
2019-04-16T02:30:53.655Z,8.85
2019-04-16T02:33:22.866Z,8.77
2019-04-16T02:35:52.072Z,8.77
2019-04-16T02:38:21.184Z,8.76
2019-04-16T02:40:52.812Z,8.73
2019-04-16T02:43:19.433Z,8.71
2019-04-16T02:45:48.663Z,8.72
2019-04-16T02:48:18.118Z,8.94
2019-04-16T02:50:48.644Z,8.80
2019-04-16T02:53:58.792Z,8.80
2019-04-16T02:56:39.014Z,8.73
2019-04-16T02:59:13.550Z,8.74
2019-04-16T03:02:03.493Z,8.65
2019-04-16T03:04:36.743Z,8.59
2019-04-16T03:07:05.877Z,8.58
2019-04-16T03:09:39.798Z,8.47
2019-04-16T03:12:04.280Z,8.49
2019-04-16T03:14:33.475Z,8.49
2019-04-16T03:17:24.368Z,8.47
2019-04-16T03:19:53.562Z,8.39
2019-04-16T03:22:22.845Z,8.42
2019-04-16T03:24:51.968Z,8.38
2019-04-16T03:27:22.191Z,8.31
2019-04-16T03:29:50.302Z,8.20
2019-04-16T03:32:19.489Z,8.14
2019-04-16T03:34:50.549Z,8.14
2019-04-16T03:37:17.835Z,8.19
2019-04-16T03:39:46.938Z,8.04
2019-04-16T03:42:16.248Z,8.11
2019-04-16T03:44:45.450Z,8.11
2019-04-16T03:47:15.731Z,8.13
2019-04-16T03:49:43.700Z,8.09
2019-04-16T03:52:12.751Z,8.09
2019-04-16T03:54:41.928Z,8.14
2019-04-16T03:57:11.048Z,8.33
2019-04-16T03:59:40.798Z,8.21
2019-04-16T04:02:09.421Z,8.19
2019-04-16T04:04:38.560Z,8.16
2019-04-16T04:07:08.729Z,8.15
2019-04-16T04:09:37.036Z,8.07
2019-04-16T04:12:06.217Z,8.12
2019-04-16T04:14:35.395Z,8.10
2019-04-16T04:17:06.695Z,8.03
2019-04-16T04:19:34.034Z,8.00
2019-04-16T04:22:03.107Z,8.01
2019-04-16T04:24:32.299Z,7.99
2019-04-16T04:27:01.728Z,7.95
2019-04-16T04:29:30.768Z,7.93
2019-04-16T04:32:03.056Z,7.91
2019-04-16T04:34:29.217Z,7.87
2019-04-16T04:36:59.741Z,7.85
2019-04-16T04:39:27.624Z,7.80
2019-04-16T04:41:57.275Z,7.78
2019-04-16T04:44:25.915Z,7.78
2019-04-16T04:46:55.114Z,7.81
2019-04-16T04:49:24.209Z,7.82
2019-04-16T04:51:53.415Z,7.86
2019-04-16T04:54:23.541Z,7.86
2019-04-16T04:56:53.041Z,7.90
2019-04-16T04:59:22.231Z,7.85
2019-04-16T05:01:51.545Z,7.87
2019-04-16T05:04:32.331Z,8.10
2019-04-16T05:07:04.733Z,7.95
2019-04-16T05:09:35.402Z,7.93
2019-04-16T05:12:02.019Z,7.96
2019-04-16T05:14:31.347Z,8.17
2019-04-16T05:17:00.581Z,8.03
2019-04-16T05:19:29.733Z,8.04
2019-04-16T05:21:59.048Z,8.09
2019-04-16T05:24:29.166Z,8.06
2019-04-16T05:26:57.516Z,8.06
2019-04-16T05:29:26.709Z,8.14
2019-04-16T05:31:57.457Z,8.06
2019-04-16T05:34:25.113Z,8.11
2019-04-16T05:36:54.697Z,7.98
2019-04-16T05:39:24.378Z,8.15
2019-04-16T05:41:53.606Z,8.28
2019-04-16T05:44:22.423Z,8.31
2019-04-16T05:46:51.634Z,8.45
2019-04-16T05:49:24.640Z,8.54
2019-04-16T05:51:50.355Z,8.99
2019-04-16T05:54:37.477Z,9.20
2019-04-16T05:57:06.962Z,9.43
2019-04-16T05:59:36.280Z,9.47
2019-04-16T06:02:15.196Z,9.59
2019-04-16T06:04:41.771Z,9.65
2019-04-16T06:07:11.109Z,9.67
2019-04-16T06:09:41.508Z,9.79
2019-04-16T06:12:09.735Z,10.06
2019-04-16T06:14:49.678Z,10.99
2019-04-16T06:17:32.170Z,11.89
2019-04-16T06:20:20.502Z,13.00
2019-04-16T06:23:09.224Z,14.12
2019-04-16T06:26:03.652Z,14.71
2019-04-16T06:28:54.945Z,15.48
2019-04-16T06:31:39.073Z,15.53
2019-04-16T06:34:36.476Z,14.89
2019-04-16T06:37:26.576Z,14.59
2019-04-16T06:40:03.835Z,14.22
2019-04-16T06:42:39.871Z,14.58
2019-04-16T06:45:24.263Z,14.31
2019-04-16T06:48:01.662Z,14.00
2019-04-16T06:50:49.989Z,14.13
2019-04-16T06:53:25.230Z,14.73
2019-04-16T06:56:13.268Z,15.25
2019-04-16T06:59:04.687Z,15.97
2019-04-16T07:01:55.542Z,15.87
2019-04-16T07:04:36.403Z,15.66
2019-04-16T07:07:39.579Z,15.67
2019-04-16T07:10:06.763Z,16.49
2019-04-16T07:12:38.439Z,17.19
2019-04-16T07:15:05.952Z,17.86
2019-04-16T07:17:35.267Z,18.36
2019-04-16T07:20:05.097Z,18.27
2019-04-16T07:22:33.994Z,18.96
2019-04-16T07:25:04.411Z,19.46
2019-04-16T07:28:03.662Z,19.48
2019-04-16T07:30:57.920Z,20.16
2019-04-16T07:33:54.658Z,19.95
2019-04-16T07:36:42.975Z,20.47
2019-04-16T07:39:29.694Z,21.13
2019-04-16T07:42:26.235Z,20.96
2019-04-16T07:45:03.845Z,22.89
2019-04-16T07:47:48.321Z,24.22
2019-04-16T07:50:45.005Z,24.61
2019-04-16T07:53:36.310Z,24.57
2019-04-16T07:56:13.821Z,24.94
2019-04-16T07:58:43.024Z,24.57
2019-04-16T08:01:16.203Z,24.82
2019-04-16T08:03:41.592Z,24.83
2019-04-16T08:06:14.356Z,25.70
2019-04-16T08:08:40.639Z,25.72
2019-04-16T08:11:09.891Z,26.26
2019-04-16T08:13:39.199Z,27.28
2019-04-16T08:16:08.436Z,27.81
2019-04-16T08:18:47.751Z,26.90
2019-04-16T08:21:17.059Z,27.37
2019-04-16T08:24:11.320Z,28.11
2019-04-16T08:26:41.626Z,28.32
2019-04-16T08:29:09.926Z,28.33
2019-04-16T08:31:44.556Z,28.90
2019-04-16T08:34:10.935Z,29.85
2019-04-16T08:36:40.204Z,30.03
2019-04-16T08:39:11.600Z,29.39
2019-04-16T08:41:40.583Z,29.51
2019-04-16T08:44:10.768Z,30.02
2019-04-16T08:46:40.405Z,30.24
2019-04-16T08:49:08.729Z,29.30
2019-04-16T08:52:02.216Z,29.42
2019-04-16T08:55:04.621Z,29.27
2019-04-16T09:04:14.532Z,29.69
2019-04-16T09:07:12.149Z,29.97
2019-04-16T09:09:57.003Z,30.50
2019-04-16T09:15:40.396Z,30.47
2019-04-16T09:18:31.881Z,29.10
2019-04-16T09:21:11.496Z,28.32
2019-04-16T09:23:50.857Z,29.73
2019-04-16T09:26:39.354Z,28.78
2019-04-16T09:29:34.122Z,29.04
2019-04-16T09:35:44.879Z,30.25
2019-04-16T09:38:54.633Z,30.71
2019-04-16T09:41:57.309Z,30.05
2019-04-16T09:44:31.542Z,30.41
2019-04-16T09:47:05.230Z,30.50
2019-04-16T09:49:51.508Z,31.14
2019-04-16T09:55:51.367Z,30.64
2019-04-16T10:02:33.633Z,30.55
2019-04-16T10:05:13.289Z,29.72
2019-04-16T10:11:35.759Z,30.39
2019-04-16T10:14:54.175Z,30.14
2019-04-16T10:17:23.427Z,29.71
2019-04-16T10:23:00.049Z,29.78
2019-04-16T10:29:18.556Z,29.92
2019-04-16T10:32:57.303Z,29.90
2019-04-16T10:39:10.365Z,30.03
2019-04-16T10:39:11.797Z,30.46
2019-04-16T10:41:56.486Z,29.40
2019-04-16T10:56:03.044Z,29.99
2019-04-16T10:59:10.441Z,29.67
2019-04-16T11:06:23.816Z,29.75
2019-04-16T11:09:57.214Z,30.16
2019-04-16T11:21:50.477Z,29.98
2019-04-16T11:24:27.370Z,30.73
2019-04-16T11:27:17.729Z,30.29
2019-04-16T11:29:50.408Z,29.62
2019-04-16T11:32:47.845Z,31.17
2019-04-16T11:35:58.837Z,29.88
2019-04-16T11:39:24.920Z,29.18
2019-04-16T11:42:08.381Z,28.18
2019-04-16T11:48:30.614Z,26.39
2019-04-16T11:49:29.510Z,27.14
2019-04-16T11:51:55.675Z,25.60
2019-04-16T11:55:03.244Z,24.75
2019-04-16T12:04:14.877Z,23.89
2019-04-16T12:07:29.502Z,24.03
2019-04-16T12:17:19.021Z,23.20
2019-04-16T12:20:40.733Z,22.75
2019-04-16T12:27:18.336Z,22.44
2019-04-16T12:30:16.752Z,22.34
2019-04-16T12:33:15.919Z,22.44
2019-04-16T12:36:17.440Z,22.71
2019-04-16T12:39:53.979Z,22.65
2019-04-16T12:43:15.178Z,22.61
2019-04-16T12:45:56.964Z,22.52
2019-04-16T12:52:31.441Z,22.63
2019-04-16T12:55:03.814Z,22.87
2019-04-16T12:58:53.129Z,23.03
2019-04-16T13:02:12.670Z,23.05
2019-04-16T13:07:09.526Z,23.17
2019-04-16T13:08:42.280Z,23.11
2019-04-16T13:11:36.119Z,22.88
2019-04-16T13:17:47.897Z,22.65
2019-04-16T13:21:08.533Z,22.61
2019-04-16T13:23:50.336Z,22.46
2019-04-16T13:27:13.545Z,22.65
2019-04-16T13:30:18.167Z,22.54
2019-04-16T13:33:13.250Z,22.74
2019-04-16T13:35:57.271Z,22.51
2019-04-16T13:38:46.506Z,22.10
2019-04-16T13:42:01.743Z,22.35
2019-04-16T13:44:49.233Z,22.33
2019-04-16T13:48:13.900Z,22.43
2019-04-16T13:51:35.630Z,22.42
2019-04-16T13:54:38.288Z,22.35
2019-04-16T13:57:16.196Z,22.18
2019-04-16T14:00:04.396Z,22.30
2019-04-16T14:07:35.514Z,22.26
2019-04-16T14:10:29.594Z,22.23
2019-04-16T14:13:12.355Z,22.21
2019-04-16T14:15:44.799Z,21.97
2019-04-16T14:24:51.475Z,21.66
2019-04-16T14:27:55.381Z,21.68
2019-04-16T14:31:00.592Z,21.72
2019-04-16T14:37:03.748Z,21.42
2019-04-16T14:40:28.645Z,21.50
2019-04-16T14:46:34.012Z,21.41
2019-04-16T14:49:38.318Z,21.29
2019-04-16T14:52:42.905Z,21.18
2019-04-16T14:55:42.096Z,21.11
2019-04-16T15:02:32.118Z,21.25
2019-04-16T15:05:09.424Z,21.22
2019-04-16T15:08:00.161Z,21.14
2019-04-16T15:10:46.871Z,21.17
2019-04-16T15:13:20.948Z,21.17
2019-04-16T15:16:10.896Z,21.18
2019-04-16T15:18:54.467Z,21.14
2019-04-16T15:21:57.689Z,20.95
2019-04-16T15:24:42.111Z,20.96
2019-04-16T15:27:33.019Z,21.09
2019-04-16T15:30:36.114Z,21.00
2019-04-16T15:33:23.089Z,21.05
2019-04-16T15:35:58.660Z,20.96
2019-04-16T15:38:49.659Z,20.85
2019-04-16T15:41:23.180Z,20.86
2019-04-16T15:44:22.461Z,20.72
2019-04-16T15:47:14.985Z,20.73
2019-04-16T15:49:59.784Z,20.70
2019-04-16T15:52:41.944Z,20.58
2019-04-16T15:55:30.036Z,20.79
2019-04-16T15:58:11.225Z,20.54
2019-04-16T16:01:06.450Z,20.56
2019-04-16T16:03:54.423Z,20.41
2019-04-16T16:06:24.994Z,20.41
2019-04-16T16:09:16.352Z,20.25
2019-04-16T16:11:59.495Z,20.35
2019-04-16T16:14:33.238Z,20.40
2019-04-16T16:16:57.684Z,20.35
2019-04-16T16:19:27.702Z,20.19
2019-04-16T16:21:56.894Z,20.12
2019-04-16T16:24:25.963Z,20.14
2019-04-16T16:26:55.048Z,20.11
2019-04-16T16:29:24.105Z,20.08
2019-04-16T16:31:53.459Z,20.12
2019-04-16T16:34:22.701Z,20.07
2019-04-16T16:36:51.675Z,20.16
2019-04-16T16:39:20.750Z,20.20
2019-04-16T16:41:50.460Z,20.21
2019-04-16T16:44:19.459Z,20.22
2019-04-16T16:47:13.810Z,20.17
2019-04-16T16:49:42.857Z,20.10
2019-04-16T16:52:33.908Z,20.10
2019-04-16T16:55:04.057Z,19.97
2019-04-16T16:57:40.400Z,20.03
2019-04-16T17:00:28.601Z,19.87
2019-04-16T17:03:08.641Z,19.77
2019-04-16T17:05:37.569Z,19.78
2019-04-16T17:08:06.851Z,19.81
2019-04-16T17:10:35.963Z,19.75
2019-04-16T17:13:05.171Z,19.73
2019-04-16T17:15:34.275Z,19.65
2019-04-16T17:18:03.410Z,19.61
2019-04-16T17:20:32.583Z,19.45
2019-04-16T17:23:01.621Z,19.56
2019-04-16T17:25:36.458Z,19.34
2019-04-16T17:28:00.196Z,19.25
2019-04-16T17:30:29.210Z,19.20
2019-04-16T17:32:58.423Z,19.18
2019-04-16T17:35:27.499Z,19.14
2019-04-16T17:38:01.564Z,19.05
2019-04-16T17:40:31.300Z,19.02
2019-04-16T17:43:04.999Z,18.95
2019-04-16T17:45:50.364Z,18.88
2019-04-16T17:48:41.995Z,18.84
2019-04-16T17:51:23.629Z,18.71
2019-04-16T17:54:01.426Z,18.65
2019-04-16T17:57:05.226Z,18.60
2019-04-16T18:00:04.753Z,18.48
2019-04-16T18:02:49.028Z,18.38
2019-04-16T18:05:24.847Z,18.31
2019-04-16T18:08:11.723Z,18.29
2019-04-16T18:10:57.218Z,18.22
2019-04-16T18:13:37.872Z,18.11
2019-04-16T18:16:24.509Z,18.12
2019-04-16T18:19:08.226Z,18.05
2019-04-16T18:22:05.458Z,17.97
2019-04-16T18:24:49.717Z,17.93
2019-04-16T18:27:29.228Z,17.87
2019-04-16T18:30:15.500Z,17.82
2019-04-16T18:33:16.202Z,17.76
2019-04-16T18:35:54.934Z,17.68
2019-04-16T18:38:43.353Z,17.65
2019-04-16T18:41:21.682Z,17.63
2019-04-16T18:44:04.975Z,17.55
2019-04-16T18:49:46.160Z,17.47
2019-04-16T18:52:15.545Z,17.50
2019-04-16T18:54:45.937Z,17.41
2019-04-16T18:57:13.732Z,17.44
2019-04-16T18:59:43.244Z,17.46
2019-04-16T19:02:12.666Z,17.45
2019-04-16T19:04:41.882Z,17.44
2019-04-16T19:07:11.044Z,17.27
2019-04-16T19:09:40.413Z,17.15
2019-04-16T19:12:09.674Z,17.19
2019-04-16T19:14:38.748Z,17.16
2019-04-16T19:17:08.000Z,17.17
2019-04-16T19:19:37.888Z,17.20
2019-04-16T19:22:08.441Z,17.16
2019-04-16T19:24:37.925Z,17.41
2019-04-16T19:27:07.165Z,17.26
2019-04-16T19:29:36.415Z,17.25
2019-04-16T19:32:12.170Z,17.24
2019-04-16T19:34:43.382Z,17.41
2019-04-16T19:37:12.678Z,17.21
2019-04-16T19:39:43.750Z,17.12
2019-04-16T19:42:15.999Z,17.09
2019-04-16T19:44:55.768Z,17.02
2019-04-16T19:47:27.235Z,16.97
2019-04-16T19:50:02.462Z,16.88
2019-04-16T19:52:29.736Z,16.80
2019-04-16T19:54:58.910Z,16.75
2019-04-16T19:57:28.020Z,16.66
2019-04-16T20:04:41.401Z,16.43
2019-04-16T20:11:21.387Z,16.37
2019-04-16T20:13:54.840Z,16.29
2019-04-16T20:16:32.048Z,16.55
2019-04-16T20:18:59.691Z,16.30
2019-04-16T20:21:39.287Z,16.13
2019-04-16T20:24:08.560Z,16.05
2019-04-16T20:26:37.913Z,16.06
2019-04-16T20:29:33.738Z,16.11
2019-04-16T20:33:15.623Z,16.10
2019-04-16T20:36:02.235Z,15.99
2019-04-16T20:38:30.146Z,15.93
2019-04-16T20:41:18.108Z,15.85
2019-04-16T20:43:42.963Z,15.80
2019-04-16T20:46:43.686Z,15.71
2019-04-16T20:49:10.999Z,15.64
2019-04-16T20:51:40.260Z,15.63
2019-04-16T20:54:18.688Z,15.54
2019-04-16T20:56:50.011Z,15.43
2019-04-16T20:59:19.096Z,15.28
2019-04-16T21:02:16.658Z,15.18
2019-04-16T21:05:21.895Z,15.12
2019-04-16T21:08:01.573Z,15.18
2019-04-16T21:11:10.845Z,15.25
2019-04-16T21:14:25.474Z,15.29
2019-04-16T21:24:21.484Z,15.33
2019-04-16T21:26:51.157Z,15.32
2019-04-16T21:30:48.610Z,15.30
2019-04-16T21:34:37.461Z,15.20
2019-04-16T21:42:01.304Z,15.12
2019-04-16T21:46:40.416Z,15.01
2019-04-16T21:56:08.507Z,14.50
2019-04-16T22:09:55.925Z,14.17
2019-04-16T22:12:48.733Z,14.17
2019-04-16T22:19:29.713Z,14.02
2019-04-16T22:36:43.235Z,13.46
2019-04-16T22:43:35.384Z,13.42
2019-04-16T23:08:29.204Z,13.44
2019-04-16T23:09:36.396Z,13.46
2019-04-16T23:12:59.519Z,13.46
2019-04-16T23:16:45.878Z,13.38
2019-04-16T23:31:58.767Z,13.34
2019-04-16T23:38:57.061Z,13.22
2019-04-16T23:42:18.978Z,13.05
2019-04-16T23:52:42.924Z,12.88
